Time;durP1;ratioP1;P1;durP2;ratioP2;P2;SDS_P1;SDS_P2;PMS_P1;PMS_P2;Temp;Humidity;BMP_temperature;BMP_pressure;BME280_temperature;BME280_humidity;BME280_pressure;Samples;Min_cycle;Max_cycle;Signal;HPM_P1;HPM_P2
2024/04/13 00:00:17;;;;;;;14.05;9.80;;;;;;;13.98;63.36;95633.06;5399511;26;20013;-75
2024/04/13 00:02:42;;;;;;;13.00;9.93;;;;;;;13.83;63.66;95622.94;5420187;26;20213;-75
2024/04/13 00:05:10;;;;;;;17.38;10.00;;;;;;;13.74;64.07;95630.72;5455042;26;20014;-75
2024/04/13 00:07:36;;;;;;;11.80;9.23;;;;;;;13.84;64.64;95621.97;5485414;26;19994;-75
2024/04/13 00:10:03;;;;;;;12.63;9.93;;;;;;;13.41;65.34;95599.41;5486251;26;19990;-75
2024/04/13 00:12:29;;;;;;;16.70;10.32;;;;;;;13.58;65.16;95613.69;5486690;26;19994;-75
2024/04/13 00:14:54;;;;;;;16.23;10.55;;;;;;;13.59;65.55;95627.56;5487118;26;20366;-75
2024/04/13 00:17:20;;;;;;;13.20;9.60;;;;;;;13.41;65.89;95602.03;5454623;26;20006;-75
2024/04/13 00:19:45;;;;;;;14.48;9.98;;;;;;;13.40;66.12;95621.25;5486378;26;20030;-75
2024/04/13 00:22:11;;;;;;;14.30;10.05;;;;;;;13.53;65.67;95621.06;5489368;26;20012;-74
2024/04/13 00:24:37;;;;;;;15.27;10.48;;;;;;;13.72;64.82;95620.41;5484918;26;20008;-75
2024/04/13 00:27:03;;;;;;;14.80;9.95;;;;;;;13.42;65.32;95610.69;5446005;26;19994;-76
2024/04/13 00:29:31;;;;;;;16.23;9.73;;;;;;;13.76;64.91;95608.75;5459640;26;20075;-76
2024/04/13 00:31:57;;;;;;;12.85;9.48;;;;;;;13.66;65.14;95607.03;5453228;26;20010;-76
2024/04/13 00:34:22;;;;;;;12.63;10.18;;;;;;;13.63;65.56;95610.72;5454602;26;20010;-75
2024/04/13 00:36:48;;;;;;;14.18;9.65;;;;;;;13.59;65.53;95617.97;5467017;26;19997;-75
2024/04/13 00:39:13;;;;;;;11.68;9.82;;;;;;;13.41;66.56;95622.91;5489335;26;20016;-75
2024/04/13 00:41:39;;;;;;;14.23;11.05;;;;;;;13.32;66.03;95615.84;5459501;26;20005;-75
2024/04/13 00:44:05;;;;;;;17.58;11.50;;;;;;;13.65;65.10;95624.50;5427766;26;20010;-75
2024/04/13 00:46:31;;;;;;;13.63;10.25;;;;;;;13.62;65.24;95622.09;5459161;26;20503;-75
2024/04/13 00:48:59;;;;;;;15.15;10.68;;;;;;;13.63;64.91;95608.94;5489727;26;20440;-75
2024/04/13 00:51:25;;;;;;;15.55;11.13;;;;;;;13.77;64.74;95615.63;5430023;26;20001;-75
2024/04/13 00:53:51;;;;;;;13.85;10.00;;;;;;;13.68;65.41;95611.19;5487403;26;20452;-75
2024/04/13 00:56:16;;;;;;;17.63;10.82;;;;;;;13.58;65.40;95621.53;5490880;26;19993;-75
2024/04/13 00:58:41;;;;;;;14.85;10.48;;;;;;;13.72;65.14;95612.56;5458399;26;20209;-75
2024/04/13 01:01:10;;;;;;;14.90;11.30;;;;;;;13.37;66.06;95624.13;5458253;26;20070;-73
2024/04/13 01:03:39;;;;;;;15.00;10.98;;;;;;;13.54;65.89;95619.28;5489350;26;20026;-73
2024/04/13 01:06:08;;;;;;;17.33;10.68;;;;;;;13.63;65.66;95618.56;5489131;26;20025;-73
2024/04/13 01:08:34;;;;;;;14.70;11.70;;;;;;;13.33;66.58;95621.88;5459710;26;20008;-73
2024/04/13 01:11:00;;;;;;;13.80;11.07;;;;;;;13.40;66.21;95591.75;5457895;26;20026;-73
2024/04/13 01:13:26;;;;;;;16.60;10.60;;;;;;;13.62;65.95;95624.72;5458870;26;20037;-74
2024/04/13 01:15:52;;;;;;;14.45;11.25;;;;;;;13.48;65.96;95622.41;5458446;26;20154;-74
2024/04/13 01:18:17;;;;;;;13.68;10.82;;;;;;;13.18;66.65;95616.09;5488852;26;20001;-74
2024/04/13 01:20:43;;;;;;;14.35;11.82;;;;;;;13.26;66.96;95611.13;5487906;26;19998;-74
2024/04/13 01:23:11;;;;;;;15.70;11.40;;;;;;;13.26;66.80;95600.69;5458555;26;20009;-74
2024/04/13 01:25:38;;;;;;;18.05;12.40;;;;;;;13.14;67.56;95607.66;5489005;26;20001;-74
2024/04/13 01:28:04;;;;;;;13.68;10.02;;;;;;;13.39;67.08;95616.97;5454209;26;19994;-75
2024/04/13 01:30:29;;;;;;;15.70;10.88;;;;;;;13.19;67.27;95617.75;5420745;26;20074;-74
2024/04/13 01:32:55;;;;;;;14.85;11.25;;;;;;;13.02;68.38;95597.41;5428548;26;19995;-74
2024/04/13 01:35:20;;;;;;;13.32;11.10;;;;;;;13.27;67.50;95615.38;5489046;26;20364;-75
2024/04/13 01:37:45;;;;;;;14.02;10.52;;;;;;;13.28;67.98;95617.03;5488074;26;19993;-75
2024/04/13 01:40:11;;;;;;;16.27;11.95;;;;;;;13.15;68.12;95618.97;5488814;26;20018;-74
2024/04/13 01:42:37;;;;;;;13.18;10.13;;;;;;;13.20;68.37;95616.78;5489109;26;20030;-75
2024/04/13 01:45:03;;;;;;;13.98;10.27;;;;;;;13.11;68.88;95607.91;5458022;26;19994;-76
2024/04/13 01:47:28;;;;;;;12.85;10.20;;;;;;;13.29;68.32;95621.31;5486304;26;19998;-77
2024/04/13 01:49:54;;;;;;;17.63;10.52;;;;;;;13.27;68.21;95601.50;5457999;26;19998;-77
2024/04/13 01:52:20;;;;;;;13.90;11.02;;;;;;;13.15;68.23;95611.94;5458412;26;20327;-76
2024/04/13 01:54:46;;;;;;;13.43;10.82;;;;;;;12.92;69.00;95605.13;5428275;26;20423;-75
2024/04/13 01:57:12;;;;;;;14.50;10.63;;;;;;;13.05;69.27;95608.41;5426638;26;20001;-75
2024/04/13 01:59:38;;;;;;;15.05;10.82;;;;;;;12.82;70.18;95601.59;5427957;26;19990;-75
2024/04/13 02:02:03;;;;;;;11.32;10.00;;;;;;;12.88;70.24;95596.72;5458434;26;19990;-74
2024/04/13 02:04:29;;;;;;;17.52;11.02;;;;;;;12.85;70.86;95594.38;5482013;26;20476;-75
2024/04/13 02:06:54;;;;;;;16.55;11.55;;;;;;;12.76;71.70;95592.50;5468000;26;20009;-74
2024/04/13 02:09:20;;;;;;;14.25;11.10;;;;;;;12.87;71.76;95589.88;5488690;26;20360;-74
2024/04/13 02:11:46;;;;;;;17.75;11.35;;;;;;;13.00;71.46;95586.25;5457496;26;20042;-74
2024/04/13 02:14:11;;;;;;;18.05;11.15;;;;;;;12.89;71.44;95594.94;5456429;26;19994;-73
2024/04/13 02:16:37;;;;;;;17.00;10.90;;;;;;;12.88;71.69;95595.91;5453582;26;19987;-73
2024/04/13 02:19:04;;;;;;;16.35;10.48;;;;;;;12.95;71.04;95599.66;5513037;26;19998;-72
2024/04/13 02:21:30;;;;;;;16.40;10.77;;;;;;;12.84;71.54;95584.03;5485506;26;19994;-72
2024/04/13 02:23:55;;;;;;;18.27;10.80;;;;;;;12.67;72.25;95598.41;5456541;26;20018;-72
2024/04/13 02:26:21;;;;;;;15.90;11.15;;;;;;;12.49;72.67;95596.31;5458092;26;20027;-72
2024/04/13 02:28:46;;;;;;;14.52;10.27;;;;;;;12.65;72.72;95582.91;5488256;26;20001;-72
2024/04/13 02:31:12;;;;;;;14.70;10.77;;;;;;;12.44;73.02;95556.75;5487731;26;20026;-74
2024/04/13 02:33:37;;;;;;;19.73;11.10;;;;;;;12.50;72.96;95558.88;5452649;26;20453;-72
2024/04/13 02:36:03;;;;;;;13.10;11.38;;;;;;;12.58;73.59;95581.72;5451387;26;20018;-73
2024/04/13 02:38:29;;;;;;;16.90;11.32;;;;;;;12.74;73.27;95597.81;5392524;26;19999;-72
2024/04/13 02:40:58;;;;;;;15.60;11.35;;;;;;;12.82;72.65;95592.00;5429560;26;20002;-73
2024/04/13 02:43:24;;;;;;;12.43;10.38;;;;;;;12.87;72.06;95594.22;5487832;26;20070;-73
2024/04/13 02:45:49;;;;;;;13.70;11.10;;;;;;;12.80;72.12;95593.91;5457242;26;20002;-73
2024/04/13 02:48:15;;;;;;;12.63;10.55;;;;;;;12.84;71.95;95589.25;5487936;26;20022;-72
2024/04/13 02:50:40;;;;;;;13.60;10.60;;;;;;;12.86;71.37;95593.41;5450341;26;19994;-72
2024/04/13 02:53:06;;;;;;;14.77;10.50;;;;;;;12.87;71.54;95595.06;5479474;26;20041;-72
2024/04/13 02:55:31;;;;;;;14.73;10.35;;;;;;;12.87;71.44;95589.88;5488084;26;19997;-73
2024/04/13 02:57:56;;;;;;;18.08;10.85;;;;;;;12.81;71.84;95585.09;5486084;26;20000;-72
2024/04/13 03:00:22;;;;;;;13.25;10.13;;;;;;;13.03;71.59;95597.25;5456068;26;20010;-73
2024/04/13 03:02:47;;;;;;;14.45;10.60;;;;;;;12.97;71.66;95595.97;5488189;26;20286;-73
2024/04/13 03:05:14;;;;;;;13.85;10.00;;;;;;;12.71;71.57;95573.78;5457158;26;20368;-74
2024/04/13 03:07:39;;;;;;;13.13;10.15;;;;;;;12.89;71.68;95602.75;5485951;26;19994;-73
2024/04/13 03:10:06;;;;;;;14.25;10.43;;;;;;;12.78;71.80;95595.78;5487347;26;20440;-73
2024/04/13 03:12:32;;;;;;;15.30;10.73;;;;;;;12.57;71.97;95566.22;5489594;26;19994;-74
2024/04/13 03:14:58;;;;;;;13.32;9.98;;;;;;;12.86;71.22;95597.78;5487877;26;19994;-73
2024/04/13 03:17:24;;;;;;;13.10;10.00;;;;;;;12.84;71.76;95602.28;5478586;26;20006;-73
2024/04/13 03:19:51;;;;;;;12.82;9.35;;;;;;;12.84;71.56;95605.75;5457416;26;20009;-74
2024/04/13 03:22:16;;;;;;;12.75;9.88;;;;;;;12.72;71.30;95596.28;5517274;26;20317;-73
2024/04/13 03:24:41;;;;;;;12.43;9.38;;;;;;;12.75;71.86;95609.88;5486612;26;20002;-74
2024/04/13 03:27:09;;;;;;;12.40;9.85;;;;;;;12.69;72.18;95609.56;5485865;26;19998;-74
2024/04/13 03:29:34;;;;;;;12.20;9.63;;;;;;;12.60;72.27;95605.06;5489173;26;19997;-74
2024/04/13 03:32:01;;;;;;;13.77;9.30;;;;;;;12.57;72.72;95607.91;5457028;26;19990;-73
2024/04/13 03:34:27;;;;;;;13.55;9.43;;;;;;;12.52;72.66;95606.47;5457266;26;20025;-72
2024/04/13 03:36:53;;;;;;;11.82;9.32;;;;;;;12.59;72.34;95600.78;5425764;26;20314;-72
2024/04/13 03:39:21;;;;;;;11.95;8.65;;;;;;;12.72;71.69;95607.53;5487393;26;20309;-73
2024/04/13 03:41:47;;;;;;;10.25;8.40;;;;;;;12.69;71.57;95610.38;5487232;26;19986;-72
2024/04/13 03:44:12;;;;;;;11.18;9.00;;;;;;;12.43;72.39;95603.78;5453608;26;20448;-74
2024/04/13 03:46:38;;;;;;;13.98;9.20;;;;;;;12.39;73.48;95605.78;5488770;26;20328;-73
2024/04/13 03:49:03;;;;;;;14.50;9.15;;;;;;;12.16;73.59;95583.28;5426838;26;19994;-72
2024/04/13 03:51:29;;;;;;;9.77;8.77;;;;;;;12.25;74.54;95603.41;5487060;26;20054;-73
2024/04/13 03:53:54;;;;;;;10.57;9.07;;;;;;;12.35;74.52;95619.19;5473052;26;20014;-75
2024/04/13 03:56:20;;;;;;;10.38;8.60;;;;;;;12.42;73.62;95617.75;5450869;26;19994;-74
2024/04/13 03:58:47;;;;;;;11.63;8.38;;;;;;;12.31;74.01;95600.31;5422130;26;19994;-74
2024/04/13 04:01:12;;;;;;;13.27;8.60;;;;;;;12.48;74.09;95620.72;5455006;26;20078;-74
2024/04/13 04:03:38;;;;;;;10.88;8.60;;;;;;;12.52;73.85;95616.91;5483746;26;20006;-73
2024/04/13 04:06:04;;;;;;;10.57;8.43;;;;;;;12.45;74.06;95617.50;5427112;26;20349;-74
2024/04/13 04:08:30;;;;;;;9.68;8.48;;;;;;;12.50;73.84;95616.19;5457089;26;20374;-74
2024/04/13 04:10:55;;;;;;;9.98;8.32;;;;;;;12.44;73.66;95634.91;5510312;25;20003;-73
2024/04/13 04:13:23;;;;;;;10.73;7.78;;;;;;;12.44;73.76;95629.69;5472762;26;19995;-73
2024/04/13 04:15:49;;;;;;;12.82;8.43;;;;;;;12.28;74.17;95639.63;5484463;26;20516;-75
2024/04/13 04:18:15;;;;;;;8.57;7.43;;;;;;;12.52;73.51;95644.75;5455031;26;20005;-74
2024/04/13 04:20:41;;;;;;;10.00;8.77;;;;;;;12.46;73.27;95647.84;5445783;26;19999;-74
2024/04/13 04:23:06;;;;;;;13.02;10.00;;;;;;;12.25;74.63;95653.72;5453800;26;20070;-74
2024/04/13 04:25:32;;;;;;;10.18;8.88;;;;;;;12.22;75.41;95653.13;5425471;26;20006;-74
2024/04/13 04:27:57;;;;;;;10.93;8.88;;;;;;;12.15;76.29;95668.41;5447955;26;19995;-74
2024/04/13 04:30:26;;;;;;;11.60;9.00;;;;;;;12.37;74.94;95664.16;5460430;26;20476;-77
2024/04/13 04:32:52;;;;;;;10.82;8.63;;;;;;;12.36;74.62;95668.53;5453268;26;20030;-76
2024/04/13 04:35:18;;;;;;;13.80;10.00;;;;;;;12.51;74.48;95664.78;5486063;26;19994;-75
2024/04/13 04:37:43;;;;;;;12.00;9.15;;;;;;;12.43;74.55;95672.34;5483031;26;20034;-74
2024/04/13 04:40:28;;;;;;;10.30;8.93;;;;;;;12.49;75.13;95673.66;5453003;26;20031;-75
2024/04/13 04:42:54;;;;;;;16.58;8.77;;;;;;;12.43;74.81;95669.75;5476079;26;19998;-75
2024/04/13 04:45:19;;;;;;;11.65;8.75;;;;;;;12.40;73.39;95672.59;5487458;26;20421;-74
2024/04/13 04:47:45;;;;;;;11.50;8.68;;;;;;;12.41;73.81;95665.59;5484370;26;20083;-74
2024/04/13 04:50:11;;;;;;;10.45;9.30;;;;;;;12.78;72.78;95658.34;5484708;26;19998;-75
2024/04/13 04:52:36;;;;;;;9.68;8.77;;;;;;;12.78;73.35;95667.97;5452818;26;20021;-75
2024/04/13 04:55:04;;;;;;;11.98;8.88;;;;;;;12.77;72.67;95668.91;5453452;26;20479;-76
2024/04/13 04:57:29;;;;;;;11.30;9.23;;;;;;;13.03;72.15;95667.69;5453307;26;20006;-76
2024/04/13 04:59:55;;;;;;;13.05;9.02;;;;;;;13.00;72.04;95648.84;5483018;26;20012;-74
2024/04/13 05:02:20;;;;;;;8.82;7.90;;;;;;;13.04;73.42;95660.69;5505652;26;19994;-76
2024/04/13 05:04:46;;;;;;;9.73;8.40;;;;;;;13.08;74.11;95662.94;5483822;26;19998;-73
2024/04/13 05:07:11;;;;;;;8.55;7.65;;;;;;;13.45;73.56;95657.41;5449953;26;19998;-73
2024/04/13 05:09:37;;;;;;;13.05;8.35;;;;;;;14.21;72.01;95658.13;5487250;26;20002;-73
2024/04/13 05:12:02;;;;;;;10.43;8.10;;;;;;;14.93;69.74;95651.16;5480432;26;20006;-76
2024/04/13 05:14:28;;;;;;;12.45;7.75;;;;;;;15.87;66.91;95648.94;5486029;26;20013;-76
2024/04/13 05:16:53;;;;;;;9.88;7.60;;;;;;;16.08;65.98;95649.59;5454796;26;20006;-77
2024/04/13 05:19:19;;;;;;;10.43;8.10;;;;;;;16.10;65.99;95646.84;5457134;26;20426;-78
2024/04/13 05:21:44;;;;;;;9.88;8.13;;;;;;;16.22;65.31;95653.59;5454231;26;20512;-76
2024/04/13 05:24:10;;;;;;;12.07;9.93;;;;;;;15.97;65.98;95636.66;5426040;26;20002;-76
2024/04/13 05:26:35;;;;;;;13.00;11.20;;;;;;;16.46;65.25;95649.66;5453851;26;20005;-78
2024/04/13 05:29:03;;;;;;;14.27;11.00;;;;;;;16.58;65.38;95642.47;5487653;26;20009;-75
2024/04/13 05:31:28;;;;;;;12.90;10.73;;;;;;;16.70;64.41;95618.50;5487359;26;20002;-76
2024/04/13 05:33:54;;;;;;;16.02;11.88;;;;;;;16.91;63.87;95641.91;5425017;26;19994;-75
2024/04/13 05:36:19;;;;;;;14.75;12.50;;;;;;;16.92;63.50;95635.69;5488725;26;20038;-75
2024/04/13 05:38:45;;;;;;;17.80;13.35;;;;;;;17.19;63.04;95644.53;5456880;26;20452;-79
2024/04/13 05:41:10;;;;;;;18.42;13.93;;;;;;;17.18;63.64;95648.94;5483320;26;20010;-77
2024/04/13 05:43:35;;;;;;;20.50;14.45;;;;;;;17.51;63.34;95649.28;5456744;26;20001;-75
2024/04/13 05:46:02;;;;;;;22.05;15.20;;;;;;;17.34;62.50;95616.78;5485330;26;20067;-74
2024/04/13 05:48:27;;;;;;;16.63;12.52;;;;;;;17.73;62.25;95640.13;5488689;26;20002;-73
2024/04/13 05:50:53;;;;;;;20.70;13.50;;;;;;;17.59;60.17;95648.53;5455431;26;20074;-74
2024/04/13 05:53:19;;;;;;;21.92;13.32;;;;;;;17.88;59.41;95634.34;5485681;26;19994;-74
2024/04/13 05:55:45;;;;;;;19.80;13.65;;;;;;;17.67;60.45;95648.63;5425880;26;20400;-76
2024/04/13 05:58:10;;;;;;;17.38;14.07;;;;;;;17.83;60.12;95646.16;5486006;26;20006;-76
2024/04/13 06:00:35;;;;;;;25.25;13.45;;;;;;;18.00;59.72;95646.31;5488928;26;20496;-77
2024/04/13 06:03:02;;;;;;;18.80;12.30;;;;;;;17.97;58.26;95646.59;5455383;26;20002;-75
2024/04/13 06:05:28;;;;;;;20.17;14.63;;;;;;;17.90;58.16;95643.75;5484645;26;20437;-75
2024/04/13 06:07:53;;;;;;;13.88;11.35;;;;;;;18.58;58.32;95643.03;5486957;26;19998;-76
2024/04/13 06:10:19;;;;;;;17.17;11.82;;;;;;;18.35;57.46;95648.00;5487962;26;20030;-76
2024/04/13 06:12:46;;;;;;;18.02;13.63;;;;;;;18.24;57.96;95646.47;5485130;26;20077;-77
2024/04/13 06:15:11;;;;;;;16.25;10.95;;;;;;;18.09;57.99;95651.47;5420396;26;19999;-74
2024/04/13 06:17:37;;;;;;;13.57;9.90;;;;;;;18.45;58.02;95654.00;5507288;26;20379;-75
2024/04/13 06:20:02;;;;;;;13.48;8.88;;;;;;;18.41;57.08;95651.81;5452590;26;20038;-80
2024/04/13 06:22:28;;;;;;;10.98;8.55;;;;;;;18.33;56.99;95630.72;5415596;26;20002;-73
2024/04/13 06:24:53;;;;;;;10.88;8.73;;;;;;;18.66;56.27;95653.63;5476991;26;19998;-78
2024/04/13 06:27:19;;;;;;;12.07;10.00;;;;;;;18.19;57.75;95653.16;5485930;26;20094;-77
2024/04/13 06:29:50;;;;;;;12.05;9.38;;;;;;;18.04;58.07;95652.88;5488814;26;20002;-78
2024/04/13 06:32:16;;;;;;;20.65;12.70;;;;;;;17.94;58.79;95654.78;5482967;26;20013;-76
2024/04/13 06:34:42;;;;;;;16.05;12.02;;;;;;;18.25;58.24;95658.66;5454965;26;20031;-78
2024/04/13 06:37:07;;;;;;;16.48;9.23;;;;;;;18.60;57.61;95656.88;5485732;26;20026;-73
2024/04/13 06:39:33;;;;;;;15.48;10.02;;;;;;;18.09;58.45;95655.91;5488683;26;19998;-73
2024/04/13 06:41:58;;;;;;;17.27;12.15;;;;;;;18.37;58.09;95671.53;5483045;26;20009;-75
2024/04/13 06:44:24;;;;;;;19.98;9.30;;;;;;;18.79;57.07;95662.94;5486132;26;19994;-74
2024/04/13 06:46:51;;;;;;;12.55;9.57;;;;;;;18.91;56.68;95665.13;5456305;26;20030;-73
2024/04/13 06:49:17;;;;;;;13.43;8.82;;;;;;;19.00;56.74;95663.38;5484642;26;20007;-76
2024/04/13 06:51:43;;;;;;;15.30;8.77;;;;;;;18.55;57.44;95659.16;5484091;26;20013;-78
2024/04/13 06:54:08;;;;;;;10.52;8.43;;;;;;;18.40;57.48;95656.28;5515325;26;19997;-74
2024/04/13 06:56:34;;;;;;;12.82;8.63;;;;;;;18.56;56.96;95647.66;5486364;26;20043;-76
2024/04/13 06:58:59;;;;;;;12.70;9.18;;;;;;;19.00;56.00;95659.88;5450720;26;19990;-74
2024/04/13 07:01:27;;;;;;;13.52;8.27;;;;;;;18.76;56.27;95640.38;5477141;26;19994;-77
2024/04/13 07:03:56;;;;;;;11.73;8.77;;;;;;;18.69;56.33;95644.59;5486747;26;19997;-73
2024/04/13 07:06:22;;;;;;;12.20;8.02;;;;;;;19.11;55.34;95639.38;5486389;26;20006;-76
2024/04/13 07:08:48;;;;;;;12.45;7.35;;;;;;;19.76;54.13;95658.97;5454346;26;20317;-72
2024/04/13 07:11:14;;;;;;;13.80;7.93;;;;;;;20.16;52.51;95644.16;5477545;26;19994;-75
2024/04/13 07:13:40;;;;;;;11.00;7.32;;;;;;;20.06;52.76;95655.69;5424915;26;20033;-73
2024/04/13 07:16:06;;;;;;;12.48;7.68;;;;;;;19.76;52.79;95656.34;5488285;26;20428;-73
2024/04/13 07:18:32;;;;;;;14.75;7.75;;;;;;;19.84;53.39;95665.09;5488315;26;20358;-73
2024/04/13 07:20:57;;;;;;;10.50;7.75;;;;;;;20.12;52.16;95650.75;5477481;26;19999;-73
2024/04/13 07:23:23;;;;;;;19.75;7.63;;;;;;;19.66;53.08;95660.94;5471884;26;20359;-71
2024/04/13 07:26:02;;;;;;;9.00;6.90;;;;;;;19.55;52.44;95662.03;5488068;26;20074;-71
2024/04/13 07:28:28;;;;;;;16.05;7.22;;;;;;;19.27;53.46;95640.41;5458466;26;19994;-74
2024/04/13 07:30:53;;;;;;;19.60;7.85;;;;;;;19.51;52.83;95653.63;5485040;26;20009;-74
2024/04/13 07:33:19;;;;;;;12.10;7.75;;;;;;;19.47;53.30;95644.38;5487593;26;20014;-75
2024/04/13 07:35:45;;;;;;;11.80;7.13;;;;;;;19.24;53.20;95627.56;5479597;26;19994;-73
2024/04/13 07:38:11;;;;;;;8.45;7.22;;;;;;;19.57;53.32;95645.06;5476283;26;20437;-73
2024/04/13 07:40:37;;;;;;;12.57;7.95;;;;;;;19.54;53.27;95650.69;5486324;26;20351;-73
2024/04/13 07:43:02;;;;;;;13.77;7.47;;;;;;;19.87;52.55;95645.47;5455233;26;20005;-73
2024/04/13 07:45:28;;;;;;;13.00;8.40;;;;;;;19.81;52.35;95639.06;5484014;26;20417;-73
2024/04/13 07:47:54;;;;;;;14.00;7.78;;;;;;;19.86;52.95;95647.28;5486599;26;20061;-73
2024/04/13 07:50:19;;;;;;;14.20;7.40;;;;;;;20.29;51.67;95628.66;5484166;26;20073;-73
2024/04/13 07:52:45;;;;;;;12.90;7.32;;;;;;;20.48;51.17;95633.56;5423065;26;20544;-73
2024/04/13 07:55:10;;;;;;;10.90;7.13;;;;;;;20.46;51.53;95632.06;5485426;26;20131;-73
2024/04/13 07:57:36;;;;;;;10.73;7.18;;;;;;;20.13;50.94;95618.09;5451984;26;20034;-73
2024/04/13 08:00:01;;;;;;;10.35;6.78;;;;;;;20.87;49.85;95632.81;5452543;26;20704;-73
2024/04/13 08:02:27;;;;;;;9.45;7.55;;;;;;;20.73;49.33;95626.44;5483297;26;20010;-73
2024/04/13 08:04:52;;;;;;;13.50;7.50;;;;;;;20.75;50.01;95631.53;5452050;26;20013;-72
2024/04/13 08:07:18;;;;;;;9.57;7.30;;;;;;;21.10;48.92;95632.06;5452239;26;20038;-72
2024/04/13 08:09:43;;;;;;;9.95;6.57;;;;;;;21.10;48.97;95629.41;5444877;26;20398;-72
2024/04/13 08:12:09;;;;;;;10.43;7.25;;;;;;;20.59;49.50;95628.91;5471411;26;20010;-72
2024/04/13 08:14:34;;;;;;;8.73;6.93;;;;;;;21.07;48.96;95624.47;5421645;26;19994;-72
2024/04/13 08:17:00;;;;;;;8.93;6.38;;;;;;;21.21;47.94;95629.03;5459540;26;20006;-72
2024/04/13 08:19:25;;;;;;;10.50;6.28;;;;;;;21.38;46.57;95614.75;5484552;26;20046;-72
2024/04/13 08:21:51;;;;;;;18.52;6.70;;;;;;;21.77;46.20;95619.13;5512485;25;20062;-72
2024/04/13 08:24:17;;;;;;;8.57;6.55;;;;;;;21.60;46.31;95618.41;5543661;25;20009;-71
2024/04/13 08:26:42;;;;;;;14.45;6.10;;;;;;;21.66;46.32;95610.78;5457181;26;19998;-72
2024/04/13 08:29:07;;;;;;;13.05;6.45;;;;;;;21.79;45.86;95614.50;5485315;26;20013;-76
2024/04/13 08:31:33;;;;;;;11.40;5.95;;;;;;;22.18;44.00;95600.31;5456036;26;20070;-78
2024/04/13 08:33:58;;;;;;;10.10;6.28;;;;;;;21.85;44.62;95613.78;5484842;26;20023;-73
2024/04/13 08:36:24;;;;;;;12.45;7.40;;;;;;;22.26;44.20;95597.56;5485642;26;19994;-74
2024/04/13 08:38:50;;;;;;;13.13;6.25;;;;;;;22.30;43.71;95604.16;5485405;26;20035;-74
2024/04/13 08:41:54;;;;;;;8.82;5.97;;;;;;;22.02;43.90;95595.13;5516583;26;20006;-74
2024/04/13 08:44:20;;;;;;;12.65;6.22;;;;;;;21.08;45.42;95599.69;5462778;26;20009;-74
2024/04/13 08:46:45;;;;;;;10.35;5.78;;;;;;;21.02;44.28;95590.66;5430258;26;20312;-75
2024/04/13 08:49:10;;;;;;;12.13;6.00;;;;;;;20.95;44.75;95590.53;5460692;26;20639;-74
2024/04/13 08:51:36;;;;;;;8.73;5.95;;;;;;;20.82;44.05;95592.06;5429569;26;20070;-73
2024/04/13 08:54:02;;;;;;;10.07;5.55;;;;;;;20.90;43.57;95573.56;5489291;26;19994;-74
2024/04/13 08:56:27;;;;;;;11.50;6.03;;;;;;;21.25;43.83;95585.41;5459224;26;20479;-73
2024/04/13 08:58:54;;;;;;;12.88;6.53;;;;;;;21.25;44.50;95582.75;5484117;26;20424;-73
2024/04/13 09:01:27;;;;;;;12.57;5.88;;;;;;;21.18;45.15;95587.94;5423257;26;20337;-73
2024/04/13 09:03:53;;;;;;;7.78;5.63;;;;;;;21.42;45.08;95579.06;5457284;26;20504;-74
2024/04/13 09:06:19;;;;;;;12.02;6.43;;;;;;;21.81;44.71;95571.97;5489729;26;20306;-74
2024/04/13 09:08:47;;;;;;;9.05;5.38;;;;;;;21.94;43.60;95576.69;5459189;26;20001;-73
2024/04/13 09:11:13;;;;;;;11.82;5.78;;;;;;;22.05;43.46;95577.06;5428839;26;20066;-73
2024/04/13 09:13:38;;;;;;;12.05;5.88;;;;;;;21.95;43.18;95573.84;5489269;26;19998;-74
2024/04/13 09:16:06;;;;;;;11.18;6.05;;;;;;;21.52;43.03;95572.72;5458410;26;19998;-74
2024/04/13 09:18:31;;;;;;;9.80;5.78;;;;;;;21.59;43.97;95566.56;5489586;26;20027;-73
2024/04/13 09:20:56;;;;;;;8.30;5.75;;;;;;;21.45;43.72;95572.59;5422607;26;20400;-72
2024/04/13 09:23:22;;;;;;;9.07;5.82;;;;;;;21.53;43.25;95569.06;5423069;26;20007;-72
2024/04/13 09:25:48;;;;;;;7.57;5.45;;;;;;;21.38;42.78;95572.47;5445199;26;20013;-72
2024/04/13 09:28:13;;;;;;;11.10;6.03;;;;;;;21.39;43.24;95562.72;5491198;26;19990;-72
2024/04/13 09:30:41;;;;;;;8.82;5.57;;;;;;;21.64;42.71;95555.44;5458333;26;20002;-75
2024/04/13 09:33:07;;;;;;;10.48;5.15;;;;;;;21.69;41.31;95573.41;5480366;26;19991;-72
2024/04/13 09:35:32;;;;;;;8.75;5.00;;;;;;;21.47;40.80;95559.22;5482174;26;20005;-72
2024/04/13 09:37:58;;;;;;;7.60;4.93;;;;;;;21.56;41.62;95564.28;5489496;26;20356;-72
2024/04/13 09:40:24;;;;;;;8.57;5.13;;;;;;;21.57;39.94;95557.16;5485887;26;19990;-74
2024/04/13 09:42:49;;;;;;;7.40;5.15;;;;;;;21.38;40.13;95558.44;5474004;26;20437;-71
2024/04/13 09:45:15;;;;;;;8.02;5.28;;;;;;;21.37;39.69;95552.34;5410157;26;19999;-72
2024/04/13 09:47:40;;;;;;;8.82;4.75;;;;;;;21.47;38.99;95538.06;5458445;26;20016;-74
2024/04/13 09:50:06;;;;;;;10.15;5.10;;;;;;;21.92;38.93;95552.22;5458316;26;20005;-76
2024/04/13 09:52:34;;;;;;;9.52;5.65;;;;;;;22.09;39.45;95538.69;5456806;26;20026;-79
2024/04/13 09:55:00;;;;;;;8.23;5.13;;;;;;;22.43;38.69;95529.41;5425803;26;19998;-81
2024/04/13 09:57:25;;;;;;;8.20;4.93;;;;;;;22.85;38.35;95553.56;5487809;26;19998;-79
2024/04/13 09:59:51;;;;;;;9.00;5.28;;;;;;;22.93;37.92;95533.09;5458656;26;20005;-85
2024/04/13 10:02:17;;;;;;;8.10;5.22;;;;;;;22.92;38.04;95542.03;5458051;26;20002;-75
2024/04/13 10:04:43;;;;;;;10.60;5.00;;;;;;;23.00;37.45;95532.38;5487403;26;19994;-75
2024/04/13 10:07:10;;;;;;;9.23;5.13;;;;;;;23.31;37.55;95543.50;5483063;26;20004;-75
2024/04/13 10:09:35;;;;;;;10.75;5.45;;;;;;;22.87;36.96;95533.84;5458488;26;20424;-75
2024/04/13 10:12:00;;;;;;;9.43;4.75;;;;;;;22.80;37.15;95524.19;5452563;26;20044;-80
2024/04/13 10:14:26;;;;;;;7.90;4.57;;;;;;;23.36;36.10;95527.88;5454331;26;20032;-75
2024/04/13 10:16:55;;;;;;;10.65;5.00;;;;;;;23.00;35.38;95540.31;5480527;26;20084;-78
2024/04/13 10:19:20;;;;;;;7.95;4.55;;;;;;;22.39;36.00;95516.72;5453027;26;19994;-77
2024/04/13 10:21:58;;;;;;;9.50;4.65;;;;;;;23.02;35.88;95536.50;5466737;26;20005;-75
2024/04/13 10:24:24;;;;;;;7.47;4.50;;;;;;;23.01;35.26;95534.81;5488691;26;19998;-74
2024/04/13 10:26:51;;;;;;;8.25;5.00;;;;;;;22.81;35.24;95525.81;5445819;26;20492;-76
2024/04/13 10:29:25;;;;;;;8.63;5.10;;;;;;;23.25;35.96;95515.13;5490217;26;20432;-77
2024/04/13 10:31:51;;;;;;;14.10;5.38;;;;;;;23.40;35.43;95509.75;5478237;26;19994;-73
2024/04/13 10:34:24;;;;;;;9.80;4.40;;;;;;;23.52;34.83;95505.59;5483477;26;20002;-77
2024/04/13 10:36:56;;;;;;;7.18;4.82;;;;;;;23.31;34.73;95514.34;5424026;26;19994;-75
2024/04/13 10:39:21;;;;;;;6.63;4.90;;;;;;;22.95;33.94;95515.19;5448120;26;20003;-72
2024/04/13 10:41:47;;;;;;;13.93;4.90;;;;;;;22.95;34.26;95498.47;5488280;26;20009;-73
2024/04/13 10:44:21;;;;;;;8.50;4.88;;;;;;;23.01;34.88;95495.09;5457183;26;20001;-74
2024/04/13 10:46:48;;;;;;;9.70;5.35;;;;;;;23.24;35.57;95491.47;5460363;26;20018;-78
2024/04/13 10:49:13;;;;;;;11.48;5.50;;;;;;;23.17;35.44;95494.84;5450789;26;20013;-73
2024/04/13 10:51:40;;;;;;;10.25;5.35;;;;;;;23.23;36.05;95497.75;5444544;26;20317;-73
2024/04/13 10:54:14;;;;;;;9.93;4.82;;;;;;;23.02;35.01;95496.75;5477720;26;20008;-73
2024/04/13 10:56:39;;;;;;;8.77;5.63;;;;;;;23.35;34.54;95481.19;5454629;26;20009;-73
2024/04/13 10:59:08;;;;;;;9.60;4.80;;;;;;;23.81;32.56;95458.72;5441829;26;20011;-74
2024/04/13 11:01:40;;;;;;;10.00;4.80;;;;;;;24.05;31.68;95463.56;5465267;26;20010;-73
2024/04/13 11:04:06;;;;;;;11.88;4.75;;;;;;;24.26;31.78;95472.47;5440771;26;20022;-74
2024/04/13 11:06:32;;;;;;;16.10;5.03;;;;;;;24.30;33.51;95474.53;5464053;26;20075;-74
2024/04/13 11:08:57;;;;;;;10.32;5.10;;;;;;;24.58;32.33;95481.66;5455221;26;20007;-73
2024/04/13 11:11:25;;;;;;;8.10;4.88;;;;;;;24.77;32.52;95464.16;5456496;26;20009;-73
2024/04/13 11:13:50;;;;;;;9.88;5.00;;;;;;;25.02;31.82;95466.25;5483115;26;20012;-74
2024/04/13 11:16:15;;;;;;;8.60;5.07;;;;;;;24.72;33.03;95446.16;5456224;26;20320;-75
2024/04/13 11:18:41;;;;;;;9.02;5.10;;;;;;;24.59;32.05;95447.94;5486704;26;20042;-75